createdAt,value
2022-08-07T00:01:44.540Z,25.00
2022-08-07T00:04:26.533Z,25.00
2022-08-07T00:06:56.919Z,24.90
2022-08-07T00:09:35.482Z,25.00
2022-08-07T00:12:06.857Z,25.00
2022-08-07T00:14:41.072Z,25.00
2022-08-07T00:17:14.928Z,25.00
2022-08-07T00:20:01.358Z,25.00
2022-08-07T00:22:35.088Z,25.00
2022-08-07T00:25:15.809Z,25.00
2022-08-07T00:27:53.199Z,25.10
2022-08-07T00:30:27.604Z,25.10
2022-08-07T00:33:00.118Z,25.10
2022-08-07T00:35:31.629Z,25.20
2022-08-07T00:38:05.723Z,25.20
2022-08-07T00:40:40.374Z,25.20
2022-08-07T00:43:59.260Z,25.20
2022-08-07T00:46:07.984Z,25.20
2022-08-07T00:48:42.044Z,25.30
2022-08-07T00:51:13.330Z,25.30
2022-08-07T00:53:50.054Z,25.30
2022-08-07T00:56:22.062Z,25.30
2022-08-07T00:58:52.650Z,25.40
2022-08-07T01:01:23.624Z,25.40
2022-08-07T01:04:00.463Z,25.50
2022-08-07T01:06:34.135Z,25.50
2022-08-07T01:09:07.899Z,25.50
2022-08-07T01:12:23.476Z,25.50
2022-08-07T01:14:29.418Z,25.70
2022-08-07T01:17:04.215Z,25.80
2022-08-07T01:19:38.445Z,25.80
2022-08-07T01:22:16.219Z,25.90
2022-08-07T01:24:53.850Z,26.00
2022-08-07T01:27:32.047Z,26.00
2022-08-07T01:30:03.682Z,25.90
2022-08-07T01:32:34.466Z,26.00
2022-08-07T01:35:05.076Z,25.90
2022-08-07T01:37:35.836Z,26.00
2022-08-07T01:40:14.777Z,26.00
2022-08-07T01:42:57.637Z,26.00
2022-08-07T01:45:36.441Z,26.00
2022-08-07T01:48:19.023Z,26.00
2022-08-07T01:52:01.884Z,26.00
2022-08-07T01:54:21.884Z,25.90
2022-08-07T01:57:24.944Z,25.90
2022-08-07T02:00:17.771Z,26.10
2022-08-07T02:03:18.856Z,26.30
2022-08-07T02:05:59.928Z,26.50
2022-08-07T02:08:37.496Z,27.00
2022-08-07T02:11:31.073Z,27.00
2022-08-07T02:14:07.478Z,27.20
2022-08-07T02:16:40.339Z,27.50
2022-08-07T02:20:05.034Z,27.60
2022-08-07T02:22:07.925Z,27.80
2022-08-07T02:24:39.502Z,28.00
2022-08-07T02:27:21.229Z,28.20
2022-08-07T02:29:55.844Z,28.40
2022-08-07T02:32:30.048Z,28.50
2022-08-07T02:35:02.324Z,28.70
2022-08-07T02:37:44.119Z,28.90
2022-08-07T02:40:31.077Z,29.20
2022-08-07T02:43:08.263Z,29.30
2022-08-07T02:45:58.361Z,29.40
2022-08-07T02:48:31.787Z,29.30
2022-08-07T02:51:14.241Z,29.30
2022-08-07T02:54:02.649Z,29.30
2022-08-07T02:56:35.372Z,29.20
2022-08-07T02:59:12.212Z,29.30
2022-08-07T03:01:47.238Z,29.30
2022-08-07T03:04:23.818Z,29.20
2022-08-07T03:06:58.631Z,29.30
2022-08-07T03:09:43.268Z,29.30
2022-08-07T03:12:31.052Z,29.20
2022-08-07T03:15:07.902Z,29.00
2022-08-07T03:17:54.013Z,29.00
2022-08-07T03:20:26.166Z,29.20
2022-08-07T03:22:57.568Z,29.30
2022-08-07T03:25:40.171Z,29.20
2022-08-07T03:28:37.225Z,29.00
2022-08-07T03:31:24.618Z,29.00
2022-08-07T03:34:03.137Z,29.00
2022-08-07T03:36:35.409Z,29.00
2022-08-07T03:39:11.344Z,29.00
2022-08-07T03:41:47.496Z,29.20
2022-08-07T03:44:21.656Z,29.40
2022-08-07T03:47:13.927Z,29.40
2022-08-07T03:49:51.964Z,29.50
2022-08-07T03:52:27.153Z,29.60
2022-08-07T03:55:06.771Z,29.50
2022-08-07T03:58:34.861Z,29.40
2022-08-07T04:00:36.659Z,29.40
2022-08-07T04:03:09.929Z,29.40
2022-08-07T04:05:42.332Z,29.60
2022-08-07T04:08:18.457Z,29.70
2022-08-07T04:10:54.260Z,29.50
2022-08-07T04:14:10.745Z,29.60
2022-08-07T04:16:34.521Z,29.60
2022-08-07T04:19:12.750Z,29.70
2022-08-07T04:21:59.389Z,29.90
2022-08-07T04:24:39.005Z,29.90
2022-08-07T04:27:20.426Z,29.80
2022-08-07T04:30:02.028Z,29.80
2022-08-07T04:32:35.624Z,29.70
2022-08-07T04:35:11.425Z,29.70
2022-08-07T04:38:03.054Z,29.70
2022-08-07T04:40:32.617Z,29.70
2022-08-07T04:43:03.830Z,29.90
2022-08-07T04:46:05.681Z,30.00
2022-08-07T04:49:07.498Z,30.00
2022-08-07T04:52:02.169Z,29.90
2022-08-07T04:54:54.171Z,30.00
2022-08-07T04:58:32.072Z,30.00
2022-08-07T05:00:38.107Z,30.00
2022-08-07T05:04:07.272Z,30.20
2022-08-07T05:06:52.881Z,30.30
2022-08-07T05:09:46.647Z,30.40
2022-08-07T05:12:27.102Z,30.50
2022-08-07T05:15:24.076Z,30.50
2022-08-07T05:18:09.044Z,30.60
2022-08-07T05:20:53.964Z,30.80
2022-08-07T05:23:35.600Z,30.70
2022-08-07T05:26:12.899Z,30.70
2022-08-07T05:28:51.976Z,30.80
2022-08-07T05:31:35.246Z,30.90
2022-08-07T05:34:12.621Z,31.00
2022-08-07T05:36:53.147Z,31.10
2022-08-07T05:40:13.899Z,31.30
2022-08-07T05:42:33.856Z,31.30
2022-08-07T05:45:26.343Z,31.40
2022-08-07T05:48:02.176Z,31.30
2022-08-07T05:50:39.509Z,31.30
2022-08-07T05:54:12.867Z,31.30
2022-08-07T05:56:06.078Z,31.30
2022-08-07T05:58:39.567Z,31.30
2022-08-07T06:01:12.664Z,31.30
2022-08-07T06:03:56.753Z,31.30
2022-08-07T06:06:32.395Z,31.50
2022-08-07T06:09:04.452Z,31.50
2022-08-07T06:11:36.988Z,31.40
2022-08-07T06:14:11.676Z,31.40
2022-08-07T06:16:50.438Z,31.40
2022-08-07T06:19:57.866Z,31.40
2022-08-07T06:22:23.987Z,31.40
2022-08-07T06:25:10.058Z,31.20
2022-08-07T06:28:00.372Z,31.40
2022-08-07T06:30:35.964Z,31.40
2022-08-07T06:33:15.840Z,31.50
2022-08-07T06:36:12.856Z,31.70
2022-08-07T06:38:38.140Z,31.70
2022-08-07T06:42:02.689Z,31.80
2022-08-07T06:44:22.758Z,31.90
2022-08-07T06:47:10.532Z,32.00
2022-08-07T06:49:52.465Z,31.90
2022-08-07T06:52:36.457Z,32.10
2022-08-07T06:55:31.348Z,32.20
2022-08-07T06:58:21.526Z,32.20
2022-08-07T07:00:56.192Z,32.20
2022-08-07T07:03:40.140Z,32.30
2022-08-07T07:06:26.242Z,32.30
2022-08-07T07:08:58.160Z,32.50
2022-08-07T07:12:08.178Z,32.40
2022-08-07T07:14:23.066Z,32.20
2022-08-07T07:16:57.602Z,32.10
2022-08-07T07:19:56.100Z,32.10
2022-08-07T07:22:35.783Z,32.20
2022-08-07T07:26:30.591Z,32.20
2022-08-07T07:28:07.764Z,32.30
2022-08-07T07:31:07.073Z,32.20
2022-08-07T07:33:38.957Z,32.20
2022-08-07T07:36:13.481Z,32.00
2022-08-07T07:38:48.631Z,32.00
2022-08-07T07:41:21.138Z,31.90
2022-08-07T07:44:16.810Z,31.90
2022-08-07T07:46:57.299Z,32.00
2022-08-07T07:50:34.754Z,31.90
2022-08-07T07:52:32.506Z,31.90
2022-08-07T07:55:03.605Z,32.00
2022-08-07T07:57:52.250Z,32.10
2022-08-07T08:00:31.559Z,32.10
2022-08-07T08:03:17.077Z,31.90
2022-08-07T08:06:05.425Z,31.70
2022-08-07T08:08:41.772Z,31.70
2022-08-07T08:11:17.813Z,31.80
2022-08-07T08:13:54.660Z,31.90
2022-08-07T08:16:53.544Z,32.00
2022-08-07T08:20:16.179Z,32.00
2022-08-07T08:22:54.380Z,32.20
2022-08-07T08:25:48.995Z,32.50
2022-08-07T08:28:37.422Z,32.70
2022-08-07T08:31:16.333Z,32.90
2022-08-07T08:33:57.883Z,33.00
2022-08-07T08:36:33.811Z,33.10
2022-08-07T08:39:07.516Z,33.10
2022-08-07T08:41:57.674Z,33.10
2022-08-07T08:44:44.606Z,33.00
2022-08-07T08:47:25.408Z,33.00
2022-08-07T08:50:10.820Z,32.80
2022-08-07T08:52:53.680Z,32.70
2022-08-07T08:55:55.142Z,32.30
2022-08-07T08:58:54.507Z,32.00
2022-08-07T09:01:43.793Z,31.80
2022-08-07T09:04:32.874Z,31.60
2022-08-07T09:07:27.520Z,31.50
2022-08-07T09:10:22.183Z,31.30
2022-08-07T09:13:15.676Z,31.30
2022-08-07T09:16:23.066Z,31.20
2022-08-07T09:19:53.412Z,31.00
2022-08-07T09:24:27.523Z,30.80
2022-08-07T09:25:20.281Z,30.60
2022-08-07T09:29:24.457Z,30.60
2022-08-07T09:31:13.362Z,30.50
2022-08-07T09:34:20.891Z,30.50
2022-08-07T09:37:08.827Z,30.10
2022-08-07T09:40:08.118Z,29.70
2022-08-07T09:42:57.513Z,29.30
2022-08-07T09:47:50.136Z,29.20
2022-08-07T09:49:59.424Z,29.10
2022-08-07T09:52:33.594Z,29.30
2022-08-07T09:55:29.921Z,29.40
2022-08-07T09:58:36.565Z,29.60
2022-08-07T10:01:51.221Z,29.70
2022-08-07T10:04:28.120Z,29.70
2022-08-07T10:07:52.531Z,29.70
2022-08-07T10:11:16.753Z,29.50
2022-08-07T10:14:11.187Z,29.60
2022-08-07T10:17:02.190Z,29.70
2022-08-07T10:20:13.055Z,29.80
2022-08-07T10:22:55.680Z,29.90
2022-08-07T10:25:53.892Z,29.80
2022-08-07T10:28:49.899Z,29.50
2022-08-07T10:31:23.063Z,29.20
2022-08-07T10:34:17.869Z,29.10
2022-08-07T10:37:16.793Z,28.90
2022-08-07T10:40:03.040Z,28.80
2022-08-07T10:43:34.895Z,28.80
2022-08-07T10:46:27.898Z,28.80
2022-08-07T10:49:16.789Z,28.80
2022-08-07T10:52:13.227Z,28.70
2022-08-07T10:55:21.230Z,28.60
2022-08-07T10:58:16.916Z,28.60
2022-08-07T11:00:58.081Z,28.60
2022-08-07T11:04:17.037Z,28.60
2022-08-07T11:07:57.026Z,28.50
2022-08-07T11:10:42.133Z,28.50
2022-08-07T11:14:41.994Z,28.50
2022-08-07T11:16:30.679Z,28.60
2022-08-07T11:19:21.562Z,28.60
2022-08-07T11:22:26.449Z,28.60
2022-08-07T11:24:57.560Z,28.70
2022-08-07T11:28:03.124Z,28.70
2022-08-07T11:30:55.947Z,28.70
2022-08-07T11:33:58.698Z,28.80
2022-08-07T11:36:52.018Z,28.70
2022-08-07T11:40:00.048Z,28.80
2022-08-07T11:42:50.503Z,28.70
2022-08-07T11:45:49.961Z,28.70
2022-08-07T11:48:53.995Z,28.70
2022-08-07T11:51:56.568Z,28.70
2022-08-07T11:54:55.074Z,28.60
2022-08-07T11:58:00.505Z,28.60
2022-08-07T12:01:05.313Z,28.60
2022-08-07T12:04:05.688Z,28.50
2022-08-07T12:07:38.768Z,28.50
2022-08-07T12:10:23.921Z,28.40
2022-08-07T12:13:11.374Z,28.40
2022-08-07T12:16:06.142Z,28.40
2022-08-07T12:18:54.599Z,28.30
2022-08-07T12:22:36.543Z,28.30
2022-08-07T12:24:40.517Z,28.30
2022-08-07T12:27:27.985Z,28.20
2022-08-07T12:30:12.894Z,28.10
2022-08-07T12:33:23.524Z,28.10
2022-08-07T12:36:02.297Z,28.00
2022-08-07T12:38:42.540Z,27.90
2022-08-07T12:41:16.339Z,27.80
2022-08-07T12:44:02.513Z,27.80
2022-08-07T12:47:27.080Z,27.80
2022-08-07T12:50:34.215Z,27.70
2022-08-07T12:53:27.578Z,27.70
2022-08-07T12:56:18.250Z,27.70
2022-08-07T12:58:57.022Z,27.60
2022-08-07T13:01:35.045Z,27.60
2022-08-07T13:04:38.882Z,27.60
2022-08-07T13:08:12.655Z,27.70
2022-08-07T13:11:27.061Z,27.70
2022-08-07T13:14:11.812Z,27.60
2022-08-07T13:17:39.843Z,27.60
2022-08-07T13:20:58.729Z,27.60
2022-08-07T13:24:00.767Z,27.70
2022-08-07T13:26:44.589Z,27.70
2022-08-07T13:29:23.151Z,27.70
2022-08-07T13:32:23.752Z,27.60
2022-08-07T13:35:08.932Z,27.60
2022-08-07T13:37:58.785Z,27.60
2022-08-07T13:41:00.401Z,27.60
2022-08-07T13:43:34.401Z,27.50
2022-08-07T13:46:12.072Z,27.50
2022-08-07T13:49:03.016Z,27.50
2022-08-07T13:52:05.178Z,27.50
2022-08-07T13:54:34.100Z,27.50
2022-08-07T13:57:11.647Z,27.50
2022-08-07T13:59:54.974Z,27.60
2022-08-07T14:02:49.147Z,27.60
2022-08-07T14:05:37.468Z,27.50
2022-08-07T14:08:10.845Z,27.50
2022-08-07T14:10:43.839Z,27.50
2022-08-07T14:13:21.025Z,27.50
2022-08-07T14:16:15.374Z,27.50
2022-08-07T14:18:56.751Z,27.50
2022-08-07T14:22:01.120Z,27.50
2022-08-07T14:24:41.656Z,27.50
2022-08-07T14:28:11.544Z,27.50
2022-08-07T14:30:12.682Z,27.50
2022-08-07T14:32:57.176Z,27.50
2022-08-07T14:35:45.558Z,27.50
2022-08-07T14:38:30.517Z,27.50
2022-08-07T14:41:12.162Z,27.50
2022-08-07T14:43:55.486Z,27.40
2022-08-07T14:46:33.197Z,27.40
2022-08-07T14:49:17.670Z,27.40
2022-08-07T14:52:02.878Z,27.40
2022-08-07T14:54:41.790Z,27.40
2022-08-07T14:57:19.069Z,27.30
2022-08-07T15:00:04.473Z,27.30
2022-08-07T15:02:40.359Z,27.30
2022-08-07T15:05:20.644Z,27.30
2022-08-07T15:07:55.131Z,27.20
2022-08-07T15:10:30.169Z,27.20
2022-08-07T15:13:11.815Z,27.20
2022-08-07T15:15:52.438Z,27.20
2022-08-07T15:18:34.139Z,27.20
2022-08-07T15:25:14.832Z,27.20
2022-08-07T15:27:12.197Z,27.20
2022-08-07T15:30:08.967Z,27.20
2022-08-07T15:33:03.738Z,27.20
2022-08-07T15:36:00.503Z,27.20
2022-08-07T15:38:58.599Z,27.10
2022-08-07T15:42:43.667Z,27.10
2022-08-07T15:44:24.016Z,27.20
2022-08-07T15:47:03.601Z,27.20
2022-08-07T15:50:05.584Z,27.10
2022-08-07T15:52:32.980Z,27.00
2022-08-07T15:55:09.037Z,27.00
2022-08-07T15:57:48.414Z,27.00
2022-08-07T16:00:31.401Z,27.00
2022-08-07T16:03:20.590Z,27.00
2022-08-07T16:05:54.940Z,27.00
2022-08-07T16:08:30.914Z,27.00
2022-08-07T16:11:26.815Z,27.00
2022-08-07T16:14:03.889Z,27.10
2022-08-07T16:16:57.181Z,27.00
2022-08-07T16:19:59.012Z,27.00
2022-08-07T16:22:39.331Z,27.00
2022-08-07T16:25:54.491Z,26.90
2022-08-07T16:30:06.723Z,27.00
2022-08-07T16:32:33.072Z,26.90
2022-08-07T16:35:52.404Z,26.90
2022-08-07T16:39:00.179Z,26.90
2022-08-07T16:41:54.017Z,26.90
2022-08-07T16:45:15.029Z,26.90
2022-08-07T16:47:57.271Z,26.90
2022-08-07T16:51:20.953Z,26.90
2022-08-07T16:54:09.286Z,26.90
2022-08-07T16:58:01.083Z,27.00
2022-08-07T17:00:30.062Z,26.90
2022-08-07T17:03:58.365Z,26.80
2022-08-07T17:06:39.841Z,26.80
2022-08-07T17:10:07.008Z,26.90
2022-08-07T17:12:46.742Z,26.90
2022-08-07T17:15:59.865Z,26.80
2022-08-07T17:18:47.347Z,26.80
2022-08-07T17:21:24.713Z,26.80
2022-08-07T17:24:33.129Z,26.90
2022-08-07T17:27:20.233Z,26.80
2022-08-07T17:30:19.985Z,26.90
2022-08-07T17:33:03.337Z,26.90
2022-08-07T17:35:50.771Z,26.80
2022-08-07T17:38:50.137Z,26.80
2022-08-07T17:42:07.430Z,26.80
2022-08-07T17:44:50.344Z,26.80
2022-08-07T17:47:44.317Z,26.80
2022-08-07T17:50:19.817Z,26.70
2022-08-07T17:52:58.975Z,26.80
2022-08-07T17:56:01.226Z,26.70
2022-08-07T17:58:59.487Z,26.70
2022-08-07T18:01:49.617Z,26.70
2022-08-07T18:04:44.360Z,26.60
2022-08-07T18:07:28.563Z,26.70
2022-08-07T18:10:32.601Z,26.70
2022-08-07T18:13:15.584Z,26.70
2022-08-07T18:16:32.598Z,26.70
2022-08-07T18:21:11.507Z,26.70
2022-08-07T18:22:37.049Z,26.80
2022-08-07T18:35:24.161Z,25.50
2022-08-07T18:38:56.910Z,25.30
2022-08-07T18:41:45.306Z,25.60
2022-08-07T18:45:44.168Z,26.00
2022-08-07T18:48:00.670Z,26.30
2022-08-07T18:50:51.441Z,26.50
2022-08-07T18:53:36.763Z,26.50
2022-08-07T18:56:15.805Z,26.60
2022-08-07T18:59:10.592Z,26.60
2022-08-07T19:02:36.771Z,26.60
2022-08-07T19:06:02.787Z,26.60
2022-08-07T19:08:47.275Z,26.50
2022-08-07T19:12:05.226Z,26.50
2022-08-07T19:16:02.804Z,26.50
2022-08-07T19:18:34.816Z,26.50
2022-08-07T19:21:44.336Z,26.40
2022-08-07T19:24:55.551Z,26.40
2022-08-07T19:28:58.135Z,26.40
2022-08-07T19:31:03.013Z,26.40
2022-08-07T19:33:15.354Z,26.40
2022-08-07T19:35:59.301Z,26.40
2022-08-07T19:38:33.010Z,26.30
2022-08-07T19:41:06.126Z,26.30
2022-08-07T19:43:43.776Z,26.40
2022-08-07T19:46:29.085Z,26.30
2022-08-07T19:49:08.426Z,26.30
2022-08-07T19:51:52.902Z,26.40
2022-08-07T19:54:45.134Z,26.30
2022-08-07T19:58:02.986Z,26.40
2022-08-07T20:00:30.366Z,26.40
2022-08-07T20:03:32.749Z,26.40
2022-08-07T20:06:04.471Z,26.40
2022-08-07T20:08:50.238Z,26.30
2022-08-07T20:12:01.443Z,26.30
2022-08-07T20:14:31.641Z,26.30
2022-08-07T20:17:04.412Z,26.30
2022-08-07T20:19:48.335Z,26.30
2022-08-07T20:22:34.281Z,26.30
2022-08-07T20:25:19.809Z,26.30
2022-08-07T20:27:58.122Z,26.30
2022-08-07T20:30:37.609Z,26.20
2022-08-07T20:33:24.307Z,26.10
2022-08-07T20:36:07.270Z,26.10
2022-08-07T20:38:59.526Z,26.00
2022-08-07T20:41:37.778Z,26.00
2022-08-07T20:44:13.173Z,26.00
2022-08-07T20:46:45.487Z,26.00
2022-08-07T20:49:58.516Z,25.90
2022-08-07T20:52:21.181Z,25.90
2022-08-07T20:55:00.599Z,25.90
2022-08-07T20:57:37.272Z,25.90
2022-08-07T21:00:09.611Z,25.90
2022-08-07T21:03:01.259Z,26.00
2022-08-07T21:05:50.865Z,26.00
2022-08-07T21:08:40.880Z,25.90
2022-08-07T21:11:21.936Z,25.80
2022-08-07T21:14:31.507Z,25.80
2022-08-07T21:18:01.095Z,25.90
2022-08-07T21:20:04.423Z,25.90
2022-08-07T21:22:51.259Z,25.80
2022-08-07T21:25:23.982Z,25.80
2022-08-07T21:28:49.492Z,25.80
2022-08-07T21:31:31.448Z,25.70
2022-08-07T21:34:16.356Z,25.70
2022-08-07T21:37:05.470Z,25.70
2022-08-07T21:39:56.750Z,25.70
2022-08-07T21:42:58.298Z,25.70
2022-08-07T21:46:07.895Z,25.70
2022-08-07T21:48:41.258Z,25.70
2022-08-07T21:51:25.107Z,25.70
2022-08-07T21:54:15.906Z,25.80
2022-08-07T21:57:04.021Z,25.90
2022-08-07T22:00:03.015Z,25.90
2022-08-07T22:03:05.824Z,25.90
2022-08-07T22:05:52.196Z,25.90
2022-08-07T22:08:26.186Z,25.90
2022-08-07T22:11:02.461Z,25.80
2022-08-07T22:13:51.299Z,25.90
2022-08-07T22:16:56.361Z,25.90
2022-08-07T22:19:45.170Z,25.80
2022-08-07T22:22:32.112Z,25.80
2022-08-07T22:25:08.345Z,25.80
2022-08-07T22:28:31.637Z,25.80
2022-08-07T22:31:12.109Z,25.80
2022-08-07T22:34:13.755Z,25.80
2022-08-07T22:38:04.571Z,25.70
2022-08-07T22:40:41.285Z,25.70
2022-08-07T22:43:20.475Z,25.70
2022-08-07T22:46:42.786Z,25.80
2022-08-07T22:49:33.971Z,25.70
2022-08-07T22:52:10.021Z,25.70
2022-08-07T22:55:23.119Z,25.70
2022-08-07T22:57:53.888Z,25.70
2022-08-07T23:00:41.598Z,25.70
2022-08-07T23:03:58.496Z,25.70
2022-08-07T23:06:51.813Z,25.70
2022-08-07T23:10:01.084Z,25.60
2022-08-07T23:12:48.214Z,25.60
2022-08-07T23:16:05.785Z,25.60
2022-08-07T23:19:48.169Z,25.50
2022-08-07T23:22:49.149Z,25.50
2022-08-07T23:25:31.711Z,25.50
2022-08-07T23:28:31.169Z,25.50
2022-08-07T23:31:11.548Z,25.60
2022-08-07T23:34:36.721Z,25.60
2022-08-07T23:37:22.796Z,25.60
2022-08-07T23:40:33.905Z,25.60
2022-08-07T23:43:25.386Z,25.60
2022-08-07T23:46:20.053Z,25.50
2022-08-07T23:48:54.258Z,25.50
2022-08-07T23:52:58.452Z,25.60
2022-08-07T23:54:46.382Z,25.50
2022-08-07T23:57:23.159Z,25.50
